createdAt,value
2022-10-25T00:04:40.087Z,67.97
2022-10-25T00:09:43.172Z,67.99
2022-10-25T00:14:46.310Z,68.06
2022-10-25T00:19:49.292Z,68.22
2022-10-25T00:24:52.894Z,68.30
2022-10-25T00:29:55.754Z,68.26
2022-10-25T00:34:58.607Z,68.27
2022-10-25T00:40:01.791Z,68.05
2022-10-25T00:45:28.629Z,68.19
2022-10-25T00:50:40.080Z,68.32
2022-10-25T00:55:47.051Z,68.23
2022-10-25T01:00:50.605Z,68.32
2022-10-25T01:05:54.118Z,68.32
2022-10-25T01:10:57.118Z,68.68
2022-10-25T01:16:12.562Z,68.58
2022-10-25T01:21:18.410Z,68.41
2022-10-25T01:26:40.129Z,68.50
2022-10-25T01:31:50.687Z,68.15
2022-10-25T01:37:08.086Z,68.54
2022-10-25T01:42:38.905Z,68.73
2022-10-25T01:47:50.270Z,68.71
2022-10-25T01:58:03.310Z,68.53
2022-10-25T02:03:38.006Z,68.49
2022-10-25T02:08:52.063Z,68.74
2022-10-25T02:14:13.564Z,68.54
2022-10-25T02:19:22.691Z,68.63
2022-10-25T02:24:28.734Z,68.58
2022-10-25T02:29:34.315Z,68.72
2022-10-25T02:34:37.267Z,68.62
2022-10-25T02:39:40.424Z,68.52
2022-10-25T02:44:43.331Z,68.45
2022-10-25T02:49:46.278Z,68.45
2022-10-25T02:54:49.182Z,68.54
2022-10-25T02:59:52.098Z,68.76
2022-10-25T03:04:55.132Z,68.67
2022-10-25T03:09:58.014Z,68.73
2022-10-25T03:15:00.924Z,68.66
2022-10-25T03:20:04.493Z,68.82
2022-10-25T03:30:13.805Z,68.49
2022-10-25T03:35:16.732Z,68.55
2022-10-25T03:40:20.610Z,68.43
2022-10-25T03:45:23.850Z,68.69
2022-10-25T03:50:26.936Z,68.51
2022-10-25T03:55:29.785Z,68.49
2022-10-25T04:00:32.795Z,68.63
2022-10-25T04:05:36.098Z,68.59
2022-10-25T04:10:39.061Z,68.65
2022-10-25T04:15:42.082Z,68.67
2022-10-25T04:20:45.094Z,68.72
2022-10-25T04:25:48.227Z,68.75
2022-10-25T04:30:51.197Z,68.79
2022-10-25T04:35:57.730Z,68.76
2022-10-25T04:41:01.263Z,68.44
2022-10-25T04:46:04.498Z,68.71
2022-10-25T04:51:08.769Z,68.63
2022-10-25T04:56:14.522Z,68.48
2022-10-25T05:01:18.798Z,68.58
2022-10-25T05:06:25.540Z,68.18
2022-10-25T05:11:28.488Z,68.58
2022-10-25T05:16:34.709Z,68.41
2022-10-25T05:21:38.210Z,68.43
2022-10-25T05:26:41.163Z,68.36
2022-10-25T05:31:44.133Z,68.67
2022-10-25T05:36:47.024Z,68.32
2022-10-25T05:41:50.186Z,68.50
2022-10-25T05:46:53.413Z,68.53
2022-10-25T05:51:56.306Z,68.67
2022-10-25T05:56:59.187Z,68.41
2022-10-25T06:02:02.523Z,68.53
2022-10-25T06:07:07.518Z,68.33
2022-10-25T06:12:10.474Z,68.45
2022-10-25T06:17:14.007Z,68.42
2022-10-25T06:22:17.017Z,68.64
2022-10-25T06:27:19.827Z,68.77
2022-10-25T06:32:22.724Z,68.84
2022-10-25T06:37:25.660Z,68.52
2022-10-25T06:42:28.710Z,68.46
2022-10-25T06:47:31.799Z,68.33
2022-10-25T06:52:34.717Z,68.56
2022-10-25T06:57:37.629Z,68.59
2022-10-25T07:02:40.516Z,68.48
2022-10-25T07:07:43.578Z,68.54
2022-10-25T07:12:46.608Z,68.39
2022-10-25T07:17:49.824Z,68.66
2022-10-25T07:22:56.551Z,68.88
2022-10-25T07:28:02.365Z,68.56
2022-10-25T07:33:05.244Z,68.74
2022-10-25T07:38:08.116Z,68.63
2022-10-25T07:43:11.182Z,68.49
2022-10-25T07:48:14.065Z,68.24
2022-10-25T07:53:17.148Z,68.22
2022-10-25T07:58:20.591Z,68.16
2022-10-25T08:03:23.482Z,68.22
2022-10-25T08:08:27.452Z,68.07
2022-10-25T08:13:30.355Z,67.94
2022-10-25T08:18:34.244Z,67.81
2022-10-25T08:23:38.165Z,67.64
2022-10-25T08:28:41.233Z,67.34
2022-10-25T08:33:44.101Z,67.06
2022-10-25T08:38:47.400Z,67.15
2022-10-25T08:44:11.464Z,66.98
2022-10-25T08:49:58.971Z,66.64
2022-10-25T08:55:06.035Z,66.61
2022-10-25T09:00:17.550Z,66.55
2022-10-25T09:05:43.232Z,66.38
2022-10-25T09:10:55.698Z,65.93
2022-10-25T09:16:19.708Z,65.79
2022-10-25T09:21:23.110Z,65.64
2022-10-25T09:26:39.069Z,65.07
2022-10-25T09:31:48.652Z,64.86
2022-10-25T09:36:59.233Z,64.49
2022-10-25T09:42:03.466Z,64.30
2022-10-25T09:47:17.597Z,63.82
2022-10-25T09:52:44.698Z,63.59
2022-10-25T09:57:47.836Z,63.72
2022-10-25T10:02:51.052Z,63.58
2022-10-25T10:07:54.863Z,63.78
2022-10-25T10:13:12.952Z,63.85
2022-10-25T10:18:23.162Z,63.78
2022-10-25T10:23:32.755Z,64.14
2022-10-25T10:28:36.305Z,64.11
2022-10-25T10:33:39.613Z,64.74
2022-10-25T10:38:42.487Z,64.89
2022-10-25T10:43:45.423Z,64.93
2022-10-25T10:48:55.080Z,65.19
2022-10-25T10:53:58.601Z,65.28
2022-10-25T10:59:01.579Z,65.30
2022-10-25T11:04:04.691Z,65.57
2022-10-25T11:09:12.908Z,65.48
2022-10-25T11:14:17.961Z,65.66
2022-10-25T11:19:20.839Z,65.46
2022-10-25T11:25:00.893Z,65.41
2022-10-25T11:30:16.152Z,65.48
2022-10-25T11:35:38.191Z,65.64
2022-10-25T11:40:46.639Z,65.47
2022-10-25T11:45:58.671Z,65.59
2022-10-25T11:51:41.312Z,65.57
2022-10-25T11:57:14.963Z,65.24
2022-10-25T12:02:45.687Z,64.88
2022-10-25T12:07:54.766Z,64.96
2022-10-25T12:13:16.771Z,64.47
2022-10-25T12:18:26.182Z,64.31
2022-10-25T12:23:36.914Z,63.86
2022-10-25T12:28:49.871Z,63.73
2022-10-25T12:34:02.414Z,63.64
2022-10-25T12:39:18.348Z,63.48
2022-10-25T12:44:58.918Z,63.34
2022-10-25T12:50:30.031Z,63.04
2022-10-25T12:56:06.722Z,62.76
2022-10-25T13:01:38.262Z,62.44
2022-10-25T13:06:47.124Z,62.21
2022-10-25T13:11:59.612Z,61.97
2022-10-25T13:17:18.330Z,61.93
2022-10-25T13:22:46.790Z,61.82
2022-10-25T13:28:11.209Z,61.68
2022-10-25T13:33:22.685Z,61.70
2022-10-25T13:38:34.191Z,61.82
2022-10-25T13:43:56.868Z,61.72
2022-10-25T13:49:01.558Z,61.52
2022-10-25T13:54:08.426Z,61.35
2022-10-25T13:59:58.972Z,61.44
2022-10-25T14:05:02.155Z,61.48
2022-10-25T14:10:13.692Z,61.38
2022-10-25T14:15:39.804Z,61.51
2022-10-25T14:20:47.183Z,61.62
2022-10-25T14:26:01.347Z,61.60
2022-10-25T14:31:11.985Z,61.59
2022-10-25T14:36:29.883Z,61.58
2022-10-25T14:41:35.498Z,61.50
2022-10-25T14:46:44.782Z,61.80
2022-10-25T14:51:50.281Z,62.08
2022-10-25T14:57:02.824Z,61.73
2022-10-25T15:02:28.617Z,61.59
2022-10-25T15:07:31.393Z,61.69
2022-10-25T15:12:35.084Z,61.89
2022-10-25T15:17:38.295Z,62.27
2022-10-25T15:22:44.219Z,62.35
2022-10-25T15:27:48.039Z,62.37
2022-10-25T15:32:51.102Z,62.59
2022-10-25T15:37:55.895Z,62.57
2022-10-25T15:42:59.088Z,62.54
2022-10-25T15:48:14.598Z,62.65
2022-10-25T15:53:17.747Z,62.75
2022-10-25T15:58:20.704Z,62.68
2022-10-25T16:03:25.058Z,62.76
2022-10-25T16:08:28.184Z,62.91
2022-10-25T16:13:38.049Z,62.69
2022-10-25T16:18:41.005Z,62.59
2022-10-25T16:23:43.931Z,62.21
2022-10-25T16:28:46.898Z,61.94
2022-10-25T16:33:50.129Z,61.65
2022-10-25T16:38:53.111Z,61.93
2022-10-25T16:43:58.258Z,61.61
2022-10-25T16:49:02.239Z,61.52
2022-10-25T16:54:06.614Z,61.58
2022-10-25T16:59:09.557Z,61.70
2022-10-25T17:04:14.706Z,61.67
2022-10-25T17:09:18.313Z,61.60
2022-10-25T17:14:21.293Z,61.40
2022-10-25T17:19:25.981Z,61.46
2022-10-25T17:24:33.099Z,61.65
2022-10-25T17:29:36.098Z,61.71
2022-10-25T17:34:41.107Z,61.61
2022-10-25T17:39:44.553Z,61.98
2022-10-25T17:44:47.920Z,62.06
2022-10-25T17:49:51.163Z,62.08
2022-10-25T17:54:54.171Z,61.93
2022-10-25T17:59:58.193Z,61.80
2022-10-25T18:05:21.914Z,61.69
2022-10-25T18:10:25.316Z,61.57
2022-10-25T18:15:29.360Z,61.68
2022-10-25T18:20:32.464Z,61.57
2022-10-25T18:25:36.268Z,61.72
2022-10-25T18:30:39.216Z,61.53
2022-10-25T18:35:42.366Z,61.70
2022-10-25T18:40:45.461Z,61.79
2022-10-25T18:45:48.415Z,61.50
2022-10-25T18:50:51.379Z,61.37
2022-10-25T18:55:54.671Z,61.35
2022-10-25T19:00:58.382Z,61.11
2022-10-25T19:06:01.969Z,61.27
2022-10-25T19:11:07.375Z,61.27
2022-10-25T19:16:10.403Z,61.38
2022-10-25T19:21:17.138Z,61.25
2022-10-25T19:26:21.149Z,61.22
2022-10-25T19:31:24.385Z,61.12
2022-10-25T19:36:27.787Z,61.41
2022-10-25T19:41:30.769Z,61.45
2022-10-25T19:46:34.081Z,61.35
2022-10-25T19:51:37.064Z,61.79
2022-10-25T19:56:40.165Z,61.85
2022-10-25T20:01:46.103Z,61.50
2022-10-25T20:06:49.317Z,61.50
2022-10-25T20:11:52.441Z,61.39
2022-10-25T20:16:55.341Z,61.45
2022-10-25T20:21:58.353Z,61.52
2022-10-25T20:27:02.202Z,61.70
2022-10-25T20:32:05.404Z,61.53
2022-10-25T20:37:10.234Z,61.75
2022-10-25T20:42:13.076Z,61.49
2022-10-25T20:47:16.568Z,61.48
2022-10-25T20:52:19.498Z,61.40
2022-10-25T20:57:22.459Z,61.48
2022-10-25T21:02:25.837Z,61.32
2022-10-25T21:07:32.222Z,61.53
2022-10-25T21:12:35.422Z,61.65
2022-10-25T21:17:38.433Z,61.59
2022-10-25T21:22:42.588Z,61.54
2022-10-25T21:27:45.852Z,61.55
2022-10-25T21:32:49.387Z,61.83
2022-10-25T21:37:52.461Z,61.59
2022-10-25T21:42:57.952Z,61.54
2022-10-25T21:48:00.846Z,61.68
2022-10-25T21:53:03.796Z,61.39
2022-10-25T21:58:06.700Z,61.45
2022-10-25T22:03:09.782Z,61.47
2022-10-25T22:08:13.216Z,61.46
2022-10-25T22:13:16.089Z,61.57
2022-10-25T22:18:19.043Z,61.49
2022-10-25T22:23:22.694Z,61.74
2022-10-25T22:28:25.680Z,61.60
2022-10-25T22:33:29.962Z,61.89
2022-10-25T22:38:33.447Z,61.87
2022-10-25T22:43:37.151Z,61.66
2022-10-25T22:48:41.622Z,61.70
2022-10-25T22:53:44.734Z,61.92
2022-10-25T22:58:50.579Z,62.08
2022-10-25T23:03:56.163Z,62.34
2022-10-25T23:09:00.134Z,62.29
2022-10-25T23:14:05.290Z,62.51
2022-10-25T23:19:08.294Z,62.43
2022-10-25T23:24:11.391Z,62.40
2022-10-25T23:29:14.249Z,62.51
2022-10-25T23:34:17.181Z,62.58
2022-10-25T23:39:20.111Z,62.58
2022-10-25T23:44:24.432Z,62.81
2022-10-25T23:49:27.343Z,63.02
2022-10-25T23:54:30.716Z,63.05
2022-10-25T23:59:33.641Z,62.80
